createdAt,value
2022-08-26T00:02:23.234Z,8.00
2022-08-26T00:07:44.047Z,8.05
2022-08-26T00:13:05.468Z,9.23
2022-08-26T00:18:27.337Z,8.15
2022-08-26T00:23:51.462Z,7.78
2022-08-26T00:29:12.616Z,8.48
2022-08-26T00:34:34.034Z,8.65
2022-08-26T00:39:54.787Z,8.43
2022-08-26T00:45:16.167Z,8.05
2022-08-26T00:50:42.458Z,8.13
2022-08-26T00:56:08.294Z,7.97
2022-08-26T01:01:29.074Z,7.82
2022-08-26T01:06:53.671Z,8.23
2022-08-26T01:12:14.796Z,7.68
2022-08-26T01:17:37.603Z,8.30
2022-08-26T01:23:03.579Z,8.82
2022-08-26T01:28:28.187Z,9.35
2022-08-26T01:33:59.408Z,9.40
2022-08-26T01:39:21.049Z,8.80
2022-08-26T01:44:47.787Z,8.55
2022-08-26T01:50:20.098Z,8.57
2022-08-26T01:55:52.997Z,9.02
2022-08-26T02:01:14.343Z,9.35
2022-08-26T02:06:38.930Z,10.68
2022-08-26T02:12:01.744Z,9.18
2022-08-26T02:17:29.051Z,8.18
2022-08-26T02:22:49.907Z,8.43
2022-08-26T02:28:12.556Z,9.45
2022-08-26T02:33:33.199Z,9.50
2022-08-26T02:38:55.769Z,8.82
2022-08-26T02:44:16.297Z,9.50
2022-08-26T02:49:37.766Z,8.65
2022-08-26T02:54:58.622Z,9.63
2022-08-26T03:00:20.307Z,11.05
2022-08-26T03:05:42.474Z,10.93
2022-08-26T03:11:02.995Z,11.13
2022-08-26T03:16:23.688Z,11.32
2022-08-26T03:21:44.647Z,10.23
2022-08-26T03:27:07.811Z,10.82
2022-08-26T03:32:28.341Z,11.50
2022-08-26T03:37:49.179Z,12.20
2022-08-26T03:43:10.678Z,9.90
2022-08-26T03:48:31.435Z,10.45
2022-08-26T03:53:52.253Z,12.55
2022-08-26T03:59:12.584Z,10.43
2022-08-26T04:04:34.295Z,12.05
2022-08-26T04:09:58.329Z,11.50
2022-08-26T04:20:39.729Z,11.60
2022-08-26T04:26:01.432Z,12.68
2022-08-26T04:31:22.763Z,11.52
2022-08-26T04:36:44.571Z,11.68
2022-08-26T04:42:55.084Z,11.52
2022-08-26T04:48:16.922Z,11.75
2022-08-26T04:53:39.181Z,13.40
2022-08-26T04:59:00.510Z,11.90
2022-08-26T05:04:22.011Z,11.32
2022-08-26T05:09:42.664Z,11.80
2022-08-26T05:15:03.327Z,12.60
2022-08-26T05:20:25.794Z,10.55
2022-08-26T05:25:48.017Z,11.38
2022-08-26T05:31:23.307Z,11.60
2022-08-26T05:36:44.327Z,12.45
2022-08-26T05:42:05.703Z,12.18
2022-08-26T05:47:26.440Z,10.75
2022-08-26T05:52:49.795Z,10.40
2022-08-26T05:58:11.748Z,10.90
2022-08-26T06:03:37.325Z,10.68
2022-08-26T06:09:00.481Z,9.05
2022-08-26T06:14:21.497Z,10.10
2022-08-26T06:19:42.103Z,9.40
2022-08-26T06:25:21.414Z,8.80
2022-08-26T06:30:43.183Z,9.77
2022-08-26T06:36:04.100Z,9.25
2022-08-26T06:41:25.697Z,8.15
2022-08-26T06:46:46.431Z,9.18
2022-08-26T06:52:11.700Z,9.02
2022-08-26T06:57:32.927Z,9.73
2022-08-26T07:02:55.813Z,8.47
2022-08-26T07:08:16.719Z,9.43
2022-08-26T07:13:38.583Z,9.18
2022-08-26T07:18:59.290Z,9.88
2022-08-26T07:24:21.609Z,8.20
2022-08-26T07:29:43.689Z,8.32
2022-08-26T07:35:06.091Z,8.27
2022-08-26T07:40:27.280Z,8.00
2022-08-26T07:45:48.093Z,9.63
2022-08-26T07:51:08.615Z,8.63
2022-08-26T07:56:29.406Z,9.10
2022-08-26T08:01:50.373Z,8.07
2022-08-26T08:07:11.971Z,9.52
2022-08-26T08:12:32.888Z,10.50
2022-08-26T08:17:58.880Z,9.02
2022-08-26T08:23:21.301Z,9.20
2022-08-26T08:28:41.808Z,9.13
2022-08-26T08:34:02.274Z,9.05
2022-08-26T08:39:23.184Z,9.07
2022-08-26T08:44:52.202Z,10.45
2022-08-26T08:50:34.105Z,9.95
2022-08-26T08:56:08.042Z,9.10
2022-08-26T09:01:42.143Z,9.80
2022-08-26T09:12:29.434Z,9.43
2022-08-26T09:18:10.798Z,10.88
2022-08-26T09:23:35.907Z,10.85
2022-08-26T09:29:02.691Z,9.73
2022-08-26T09:34:26.401Z,11.45
2022-08-26T09:39:47.017Z,9.57
2022-08-26T09:45:10.517Z,12.45
2022-08-26T09:51:00.628Z,14.00
2022-08-26T09:56:21.971Z,12.18
2022-08-26T10:01:44.956Z,13.80
2022-08-26T10:07:09.709Z,12.93
2022-08-26T10:12:34.548Z,13.48
2022-08-26T10:18:17.741Z,14.20
2022-08-26T10:23:43.341Z,12.38
2022-08-26T10:29:15.598Z,15.23
2022-08-26T10:34:36.028Z,13.82
2022-08-26T10:40:08.222Z,12.45
2022-08-26T10:45:46.599Z,13.70
2022-08-26T10:51:08.756Z,13.68
2022-08-26T10:56:48.308Z,13.77
2022-08-26T11:02:15.314Z,12.15
2022-08-26T11:07:46.031Z,12.13
2022-08-26T11:13:07.358Z,12.95
2022-08-26T11:18:41.370Z,10.27
2022-08-26T11:24:01.703Z,11.85
2022-08-26T11:30:00.461Z,12.73
2022-08-26T11:35:21.415Z,13.32
2022-08-26T11:40:42.274Z,13.10
2022-08-26T11:46:09.223Z,12.68
2022-08-26T11:51:31.562Z,16.15
2022-08-26T11:56:53.254Z,15.20
2022-08-26T12:02:17.833Z,15.77
2022-08-26T12:07:38.920Z,16.08
2022-08-26T12:13:06.170Z,17.63
2022-08-26T12:18:33.873Z,17.90
2022-08-26T12:23:57.041Z,19.77
2022-08-26T12:29:27.340Z,19.45
2022-08-26T12:34:48.976Z,21.08
2022-08-26T12:40:31.260Z,20.83
2022-08-26T12:45:58.388Z,21.80
2022-08-26T12:51:24.398Z,20.35
2022-08-26T12:56:44.874Z,19.50
2022-08-26T13:02:05.591Z,17.45
2022-08-26T13:07:27.008Z,11.30
2022-08-26T13:12:47.590Z,9.45
2022-08-26T13:18:08.440Z,10.95
2022-08-26T13:23:28.967Z,8.88
2022-08-26T13:29:02.130Z,7.60
2022-08-26T13:34:24.008Z,7.33
2022-08-26T13:39:44.951Z,5.05
2022-08-26T13:45:06.451Z,5.13
2022-08-26T13:50:27.714Z,5.13
2022-08-26T13:55:49.140Z,4.78
2022-08-26T14:01:09.607Z,5.30
2022-08-26T14:06:30.524Z,4.57
2022-08-26T14:11:54.714Z,4.85
2022-08-26T14:17:21.036Z,5.50
2022-08-26T14:23:03.667Z,4.30
2022-08-26T14:33:51.489Z,4.18
2022-08-26T14:39:13.387Z,5.18
2022-08-26T14:44:34.405Z,3.83
2022-08-26T14:49:54.678Z,4.88
2022-08-26T14:55:15.232Z,4.82
2022-08-26T15:00:37.017Z,5.03
2022-08-26T15:05:57.851Z,4.65
2022-08-26T15:11:18.404Z,3.67
2022-08-26T15:16:39.394Z,4.85
2022-08-26T15:21:59.923Z,5.20
2022-08-26T15:27:20.644Z,4.07
2022-08-26T15:32:41.383Z,4.00
2022-08-26T15:38:01.927Z,4.18
2022-08-26T15:43:28.779Z,5.15
2022-08-26T15:48:50.015Z,4.55
2022-08-26T15:54:10.738Z,3.92
2022-08-26T15:59:31.657Z,4.40
2022-08-26T16:04:52.093Z,4.63
2022-08-26T16:10:15.287Z,5.25
2022-08-26T16:15:36.494Z,4.30
2022-08-26T16:21:12.434Z,5.97
2022-08-26T16:26:37.574Z,5.55
2022-08-26T16:31:58.273Z,5.40
2022-08-26T16:37:19.552Z,4.35
2022-08-26T16:42:40.235Z,5.05
2022-08-26T16:48:00.563Z,4.05
2022-08-26T16:53:21.408Z,4.25
2022-08-26T16:58:42.288Z,4.20
2022-08-26T17:04:03.020Z,5.13
2022-08-26T17:09:24.603Z,4.95
2022-08-26T17:14:45.836Z,4.60
2022-08-26T17:20:10.420Z,3.72
2022-08-26T17:25:31.927Z,4.47
2022-08-26T17:30:52.552Z,4.97
2022-08-26T17:36:13.808Z,5.25
2022-08-26T17:41:34.498Z,5.10
2022-08-26T17:46:55.308Z,5.00
2022-08-26T17:52:15.839Z,4.43
2022-08-26T17:57:40.811Z,3.75
2022-08-26T18:03:03.875Z,4.32
2022-08-26T18:08:24.303Z,3.92
2022-08-26T18:13:47.490Z,4.32
2022-08-26T18:19:08.683Z,5.28
2022-08-26T18:24:32.065Z,4.13
2022-08-26T18:29:52.624Z,3.45
2022-08-26T18:35:13.825Z,4.30
2022-08-26T18:40:37.488Z,4.57
2022-08-26T18:46:06.880Z,3.53
2022-08-26T18:51:30.004Z,3.85
2022-08-26T18:56:50.735Z,4.22
2022-08-26T19:02:11.832Z,3.17
2022-08-26T19:07:34.610Z,3.47
2022-08-26T19:13:00.669Z,4.15
2022-08-26T19:18:22.971Z,3.50
2022-08-26T19:23:43.495Z,4.20
2022-08-26T19:29:04.266Z,5.05
2022-08-26T19:34:25.554Z,3.92
2022-08-26T19:39:49.953Z,3.58
2022-08-26T19:45:24.853Z,3.83
2022-08-26T19:50:46.584Z,3.67
2022-08-26T19:56:07.131Z,4.28
2022-08-26T20:01:28.257Z,3.97
2022-08-26T20:06:48.534Z,4.10
2022-08-26T20:12:17.416Z,3.95
2022-08-26T20:17:38.897Z,3.60
2022-08-26T20:22:59.672Z,3.20
2022-08-26T20:28:20.097Z,3.50
2022-08-26T20:33:46.274Z,3.65
2022-08-26T20:39:07.872Z,4.18
2022-08-26T20:44:28.579Z,3.42
2022-08-26T20:49:49.035Z,3.78
2022-08-26T20:55:13.622Z,3.10
2022-08-26T21:00:34.815Z,3.60
2022-08-26T21:05:55.614Z,3.63
2022-08-26T21:11:18.009Z,3.28
2022-08-26T21:16:40.627Z,4.22
2022-08-26T21:22:01.017Z,3.95
2022-08-26T21:27:26.090Z,3.20
2022-08-26T21:32:46.977Z,3.53
2022-08-26T21:38:07.526Z,3.15
2022-08-26T21:43:35.138Z,2.65
2022-08-26T21:49:01.212Z,3.38
2022-08-26T21:54:21.960Z,3.30
2022-08-26T21:59:43.386Z,2.50
2022-08-26T22:05:05.019Z,2.92
2022-08-26T22:10:25.679Z,2.90
2022-08-26T22:15:47.794Z,2.78
2022-08-26T22:21:12.276Z,3.17
2022-08-26T22:26:33.680Z,3.53
2022-08-26T22:31:54.357Z,2.72
2022-08-26T22:37:14.910Z,2.88
2022-08-26T22:42:35.536Z,3.10
2022-08-26T22:47:56.931Z,3.25
2022-08-26T22:53:18.393Z,2.72
2022-08-26T22:58:39.329Z,3.30
2022-08-26T23:03:59.948Z,3.45
2022-08-26T23:09:20.393Z,2.55
2022-08-26T23:14:43.846Z,3.00
2022-08-26T23:20:08.781Z,3.65
2022-08-26T23:25:30.987Z,3.50
2022-08-26T23:30:53.582Z,3.53
2022-08-26T23:36:17.593Z,3.83
2022-08-26T23:41:39.055Z,3.35
2022-08-26T23:46:59.706Z,3.65
2022-08-26T23:52:38.852Z,3.78
2022-08-26T23:57:59.181Z,2.70
